ADDS TAF Data INFO
IDs: Format: Raw Decoded Include METARs

Data at: 1005 UTC 30 Sep 2016

Region: TOP
KATL 300930Z 3010/0112 30007KT P6SM SKC
  FM301800 29008KT P6SM FEW050
  FM010000 28004KT P6SM SKC


KBOS 300914Z 3009/0112 06015KT P6SM BKN028 BKN035
  FM301000 06014KT P6SM OVC035
  FM301600 06015KT P6SM VCSH OVC130
  FM010000 06014KT P6SM -SHRA OVC015


KBWI 300858Z 3009/0112 05015G20KT 6SM -DZ BKN008
  FM302300 06012KT 3SM -SHRADZ OVC008


KCLE 300853Z 3009/0112 09012KT P6SM -RA SCT012 OVC060
  TEMPO 3009/3012 4SM -RA BR SCT006 OVC012
  FM301200 08012KT P6SM VCSH SCT006 OVC012
  FM302100 09014G22KT 6SM -RA BKN015 OVC025


KCLT 300914Z 3009/0106 14005KT P6SM BKN080
  TEMPO 3010/3012 4SM BR BKN005 OVC080
  FM301300 24003KT P6SM SCT010
  FM301400 21004KT P6SM FEW250
  FM301700 20008KT P6SM FEW250


KCVG 301005Z 3010/0112 07004KT P6SM VCSH FEW010 BKN045 OVC060
  TEMPO 3010/3013 4SM -SHRA BR OVC010
  FM301300 15005KT P6SM VCSH OVC015
  FM301600 16006KT P6SM VCSH BKN035
  FM010000 14003KT P6SM BKN040


KDCA 300857Z 3009/0106 05015G23KT 6SM -DZ OVC010
  FM301200 05013KT 5SM -DZ OVC008
  FM302300 06011KT 5SM -SHRADZ OVC008


KDEN 300901Z 3009/0112 25008KT P6SM SCT120 SCT200
  FM301400 30007KT P6SM SCT100 SCT180
  FM301900 03010KT P6SM SCT080 BKN150
  FM302200 28012KT P6SM SCT070 BKN150
  FM010300 24010KT P6SM BKN080


KDFW 300904Z 3009/0112 01008KT P6SM FEW300
  FM010100 04003KT P6SM FEW300


KDTW 300938Z 3010/0112 07013KT 6SM -RA BR OVC008
  FM301600 07013G20KT 6SM -RA BKN015 OVC025
  FM301900 07013G20KT 2SM SHRA BR OVC008
  FM302300 06013KT 6SM -SHRA OVC008
  FM010700 10005KT 6SM -SHRA OVC008


KEWR 300830Z 3009/0112 04015G22KT P6SM -RA OVC015
  FM301200 04020G28KT P6SM -RA OVC012
  FM301500 04020G29KT 3SM RA OVC010
  FM301800 04014G21KT 2SM -RA BR OVC007
  FM010300 03012G18KT 2SM -SHRA BR OVC007


KFLL 300919Z 3009/0106 VRB03KT P6SM VCSH SCT025 BKN250
  FM301500 12008KT P6SM VCTS SCT025CB BKN060 BKN250
  FM010100 10005KT P6SM FEW035 SCT080 BKN250


KIAD 300857Z 3009/0112 05012KT 6SM -DZ OVC010
  FM301200 06013G17KT 5SM -DZ OVC008
  FM302300 06010KT 5SM -SHRADZ OVC008
  FM010600 05005KT 5SM -SHRADZ OVC008


KIAH 300856Z 3009/0112 02005KT P6SM SKC

KJFK 300830Z 3009/0112 05020G27KT P6SM -RA OVC020
  FM301200 05023G31KT P6SM -RA OVC015
  FM301500 04023G32KT 3SM RA OVC010
  FM301800 04020G27KT 2SM -RA BR OVC008
  FM010300 04015G21KT 2SM -SHRA BR OVC008


KLAS 300845Z 3009/0106 20006KT P6SM FEW110 FEW200
  FM301700 10006KT P6SM FEW150
  FM010300 22006KT P6SM FEW150


KLAX 300937Z 3010/0112 VRB03KT P6SM FEW050
  FM301800 25008KT P6SM SKC
  FM302000 27014KT P6SM SKC
  FM010200 26008KT P6SM SKC
  FM010600 VRB03KT P6SM SKC
  FM011000 VRB03KT 2SM BR BKN006


KLGA 300830Z 3009/0106 06024G31KT P6SM -RA OVC015
  FM301200 05025G34KT P6SM -RA OVC012
  FM301500 05025G35KT 3SM RA OVC010
  FM301800 04022G30KT 2SM -RA BR OVC008
  FM010300 04015G22KT 2SM -SHRA BR OVC008


KMCO 300901Z 3009/0106 19004KT P6SM SCT250
  FM301400 22005KT P6SM SCT030 SCT250
  FM301900 25005KT P6SM VCTS SCT045CB SCT250
  FM010000 12005KT P6SM FEW050 SCT250


KMDW 300859Z 3009/0106 05012KT P6SM VCSH SCT009 OVC015
  TEMPO 3009/3011 4SM -RA OVC010
  FM301600 05014G20KT P6SM VCSH BKN014
  FM302200 04014G21KT 6SM -SHRA SCT010 OVC018
  FM010100 02009KT 3SM -SHRA BKN008 OVC012


KMEM 300859Z 3009/0106 34004KT P6SM OVC025
  TEMPO 3011/3015 BKN035
  FM301500 31008KT P6SM BKN050
  FM010300 01003KT P6SM FEW250


KMIA 300919Z 3009/0106 VRB03KT P6SM VCSH SCT025 SCT035 BKN250
  FM301500 12007KT P6SM VCTS SCT030CB BKN060 BKN250
  FM010100 VRB03KT P6SM FEW035 SCT080 BKN250


KMSP 300900Z 3009/0112 01004KT P6SM SKC
  TEMPO 3010/3013 2SM BR BKN002
  FM301400 05007KT P6SM SKC
  FM302200 06009KT P6SM SCT030 BKN050


KORD 300859Z 3009/0112 03011KT P6SM VCSH SCT009 OVC015
  TEMPO 3009/3011 3SM -RA OVC009
  FM301600 05013G20KT P6SM VCSH BKN014
  FM302200 04014G21KT 6SM -SHRA SCT010 OVC018
  FM010100 03009KT 3SM -SHRA BKN008 OVC012
  FM010600 02007KT 5SM BR SCT007 BKN012


KPDX 300858Z 3009/0106 00000KT P6SM SKC
  FM301200 VRB03KT P6SM BKN015
  FM301800 20006KT P6SM SCT080 BKN150


KPHL 300831Z 3009/0112 05015G25KT P6SM OVC007
  TEMPO 3009/3012 2SM SHRA
  FM301500 05014G24KT P6SM OVC010
  FM010000 04008KT P6SM OVC008


KPHX 300902Z 3009/0106 10006KT P6SM SCT100
  TEMPO 3018/3022 18006KT BKN100
  FM302200 26007KT P6SM SCT100 BKN250
  FM010500 11005KT P6SM SKC


KPIT 300850Z 3009/0112 06009KT P6SM SCT007 OVC025
  TEMPO 3010/3012 5SM -SHRA BR BKN007 OVC025
  FM301200 08007KT P6SM VCSH OVC025
  FM301700 10012G17KT P6SM VCSH BKN035
  FM010400 09008KT P6SM VCSH BKN020


KSAN 300914Z 3009/0112 VRB04KT P6SM SCT005
  FM301900 28009KT P6SM SKC
  FM010200 VRB04KT P6SM FEW007
  FM010900 VRB03KT 5SM BR BKN006


KSEA 300901Z 3009/0112 08004KT P6SM SCT040 SCT250
  TEMPO 3009/3011 BKN040 BKN250
  FM301300 20004KT P6SM BKN008
  FM301800 20005KT P6SM FEW012 SCT250
  FM301900 23007KT P6SM SCT250
  FM010400 21004KT P6SM BKN070 BKN200


KSFO 300918Z 3009/0112 25008KT P6SM BKN006 OVC009
  FM301730 28012KT P6SM SCT012
  FM301900 27024G34KT P6SM FEW015
  FM010500 27015G25KT P6SM FEW020
  FM011000 27012KT P6SM FEW020


KSLC 300852Z 3009/0112 15008KT P6SM SCT100 BKN150
  FM302100 33007KT P6SM SCT090 SCT150
  FM010300 15006KT P6SM SCT150


KSTL 300854Z 3009/0112 35009KT P6SM BKN012
  FM300930 35009KT P6SM BKN008
  FM301500 34009KT P6SM BKN015
  FM302000 33009KT P6SM VCSH BKN025
  FM010100 33005KT P6SM BKN020
  FM010600 32005KT P6SM BKN008


KTPA 300856Z 3009/0106 15004KT P6SM VCSH SCT020 SCT250
  TEMPO 3010/3013 VRB12G22KT 3SM SHRA BKN020
  FM301300 22007KT P6SM VCTS SCT030CB BKN250
  FM302000 25009KT P6SM SCT030 BKN120